Time;durP1;ratioP1;P1;durP2;ratioP2;P2;SDS_P1;SDS_P2;PMS_P1;PMS_P2;Temp;Humidity;BMP_temperature;BMP_pressure;BME280_temperature;BME280_humidity;BME280_pressure;Samples;Min_cycle;Max_cycle;Signal;HPM_P1;HPM_P2
2023/01/26 00:01:15;;;;;;;53.60;32.23;;;3.50;99.90;;;;;;5091293;27;20242;-69
2023/01/26 00:04:04;;;;;;;55.17;32.70;;;3.40;99.90;;;;;;5089919;27;20793;-67
2023/01/26 00:06:53;;;;;;;54.87;31.10;;;3.50;99.90;;;;;;5086282;28;20229;-67
2023/01/26 00:09:43;;;;;;;53.53;32.87;;;3.50;99.90;;;;;;5111914;27;20367;-68
2023/01/26 00:12:32;;;;;;;55.43;32.13;;;3.50;99.90;;;;;;5091873;27;20229;-69
2023/01/26 00:15:21;;;;;;;55.73;32.03;;;3.60;99.90;;;;;;5099701;28;20225;-69
2023/01/26 00:18:09;;;;;;;56.57;31.90;;;3.50;99.90;;;;;;5094070;27;20242;-67
2023/01/26 00:20:59;;;;;;;55.43;32.20;;;3.60;99.90;;;;;;5100848;27;20233;-69
2023/01/26 00:23:48;;;;;;;52.17;31.03;;;3.50;99.90;;;;;;5091977;27;20251;-68
2023/01/26 00:26:39;;;;;;;55.13;32.40;;;3.60;99.90;;;;;;5087731;27;20400;-69
2023/01/26 00:29:27;;;;;;;53.07;30.37;;;3.60;99.90;;;;;;5126034;27;20883;-68
2023/01/26 00:32:16;;;;;;;57.60;31.47;;;3.50;99.90;;;;;;5097995;28;20698;-69
2023/01/26 00:35:06;;;;;;;53.60;31.60;;;3.40;99.90;;;;;;5096153;27;20243;-68
2023/01/26 00:37:56;;;;;;;56.57;32.47;;;3.50;99.90;;;;;;5090741;28;20579;-69
2023/01/26 00:40:45;;;;;;;58.17;32.97;;;3.50;99.90;;;;;;5099652;27;20226;-69
2023/01/26 00:43:35;;;;;;;59.43;32.33;;;3.40;99.90;;;;;;5102831;27;20235;-70
2023/01/26 00:46:24;;;;;;;55.87;33.97;;;3.40;99.90;;;;;;5100734;27;20695;-69
2023/01/26 00:49:13;;;;;;;55.17;32.53;;;3.40;99.90;;;;;;5099142;27;20363;-67
2023/01/26 00:52:02;;;;;;;54.40;32.27;;;3.40;99.90;;;;;;5100635;27;20318;-68
2023/01/26 00:54:51;;;;;;;58.47;33.67;;;3.40;99.90;;;;;;5100404;27;20487;-68
2023/01/26 00:57:40;;;;;;;56.77;32.60;;;3.40;99.90;;;;;;5093439;27;20219;-68
2023/01/26 01:00:31;;;;;;;55.90;32.50;;;3.50;99.90;;;;;;5094384;27;20229;-67
2023/01/26 01:03:20;;;;;;;56.43;32.80;;;3.40;99.90;;;;;;5094905;27;20222;-67
2023/01/26 01:06:09;;;;;;;57.20;32.47;;;3.30;99.90;;;;;;5091650;27;20219;-66
2023/01/26 01:08:57;;;;;;;62.97;34.77;;;3.30;99.90;;;;;;5089603;27;20576;-67
2023/01/26 01:11:46;;;;;;;62.67;34.70;;;3.30;99.90;;;;;;5094849;27;20244;-68
2023/01/26 01:14:38;;;;;;;59.83;33.23;;;3.40;99.90;;;;;;5097894;27;20211;-67
2023/01/26 01:17:28;;;;;;;57.97;34.43;;;3.30;99.90;;;;;;5098545;27;20595;-67
2023/01/26 01:20:18;;;;;;;55.83;33.40;;;3.40;99.90;;;;;;5092830;28;20730;-70
2023/01/26 01:23:10;;;;;;;57.07;33.67;;;3.40;99.90;;;;;;5094352;27;20235;-69
2023/01/26 01:26:00;;;;;;;56.73;33.03;;;3.50;99.90;;;;;;5099559;27;20237;-69
2023/01/26 01:28:53;;;;;;;57.60;33.60;;;3.60;99.90;;;;;;5085410;28;20227;-68
2023/01/26 01:31:42;;;;;;;61.77;34.63;;;3.50;99.90;;;;;;5105368;27;20221;-70
2023/01/26 01:34:32;;;;;;;58.63;34.07;;;3.50;99.90;;;;;;5095729;27;20224;-68
2023/01/26 01:37:20;;;;;;;56.27;33.13;;;3.40;99.90;;;;;;5090930;27;20223;-69
2023/01/26 01:40:13;;;;;;;57.57;34.03;;;3.40;99.90;;;;;;5093960;27;20222;-68
2023/01/26 01:43:02;;;;;;;65.47;34.33;;;3.50;99.90;;;;;;5122115;27;20242;-69
2023/01/26 01:45:51;;;;;;;62.13;33.50;;;3.50;99.90;;;;;;5126391;27;20222;-68
2023/01/26 01:48:49;;;;;;;59.57;33.57;;;3.40;99.90;;;;;;5099520;27;20219;-68
2023/01/26 01:51:43;;;;;;;58.13;34.53;;;3.60;99.90;;;;;;5089237;27;20762;-69
2023/01/26 01:54:36;;;;;;;64.27;33.20;;;3.70;99.90;;;;;;5124756;27;20235;-68
2023/01/26 01:57:28;;;;;;;58.77;34.03;;;3.70;99.90;;;;;;5092071;28;20220;-68
2023/01/26 02:00:19;;;;;;;63.10;35.23;;;3.60;99.90;;;;;;5095135;27;20221;-69
2023/01/26 02:03:13;;;;;;;56.57;32.47;;;3.40;99.90;;;;;;5111505;27;21032;-69
2023/01/26 02:06:07;;;;;;;57.77;32.93;;;3.30;99.90;;;;;;5126056;27;20226;-67
2023/01/26 02:09:02;;;;;;;59.27;33.27;;;3.40;99.90;;;;;;5090208;27;20231;-68
2023/01/26 02:11:53;;;;;;;57.30;33.73;;;3.40;99.90;;;;;;5100980;27;25812;-68
2023/01/26 02:14:42;;;;;;;59.50;33.77;;;3.40;99.90;;;;;;5099128;27;20230;-68
2023/01/26 02:17:31;;;;;;;63.23;35.07;;;3.50;99.90;;;;;;5090258;27;20222;-68
2023/01/26 02:20:27;;;;;;;61.97;34.40;;;3.50;99.90;;;;;;5104099;27;20963;-68
2023/01/26 02:23:28;;;;;;;57.73;34.20;;;3.50;99.90;;;;;;5098963;27;20330;-68
2023/01/26 02:26:22;;;;;;;60.10;35.40;;;3.40;99.90;;;;;;5097996;27;20575;-69
2023/01/26 02:29:12;;;;;;;59.90;33.87;;;3.40;99.90;;;;;;5098065;27;20777;-69
2023/01/26 02:32:03;;;;;;;57.07;33.43;;;3.40;99.90;;;;;;5093803;27;20211;-69
2023/01/26 02:34:57;;;;;;;69.20;35.13;;;3.40;99.90;;;;;;5117634;27;20258;-69
2023/01/26 02:37:45;;;;;;;62.07;34.93;;;3.50;99.90;;;;;;5091610;27;20310;-68
2023/01/26 02:40:40;;;;;;;61.87;34.77;;;3.40;99.90;;;;;;5090599;27;20989;-69
2023/01/26 02:43:30;;;;;;;59.50;34.17;;;3.50;99.90;;;;;;5093460;27;20219;-69
2023/01/26 02:46:19;;;;;;;58.00;33.13;;;3.50;99.90;;;;;;5098607;27;20222;-69
2023/01/26 02:52:14;;;;;;;60.43;33.50;;;3.50;99.90;;;;;;5094040;27;20259;-69
2023/01/26 02:55:23;;;;;;;56.30;32.43;;;3.50;99.90;;;;;;5093856;27;20753;-70
2023/01/26 02:58:13;;;;;;;62.90;34.40;;;3.50;99.90;;;;;;5121649;27;20234;-69
2023/01/26 03:01:03;;;;;;;56.97;33.07;;;3.50;99.90;;;;;;5089639;28;20329;-69
2023/01/26 03:03:52;;;;;;;59.93;33.97;;;3.60;99.90;;;;;;5096596;27;20315;-69
2023/01/26 03:06:43;;;;;;;60.20;33.80;;;3.60;99.90;;;;;;5090846;27;20234;-69
2023/01/26 03:09:32;;;;;;;55.03;32.43;;;3.60;99.90;;;;;;5090307;28;20813;-68
2023/01/26 03:12:21;;;;;;;58.17;34.10;;;3.60;99.90;;;;;;5090902;27;20369;-69
2023/01/26 03:27:44;;;;;;;56.63;31.53;;;3.40;99.90;;;;;;5087728;28;20306;-68
2023/01/26 03:30:33;;;;;;;59.13;32.33;;;3.40;99.90;;;;;;5088042;27;20227;-68
2023/01/26 03:33:28;;;;;;;55.23;31.60;;;3.40;99.90;;;;;;5100625;27;20967;-67
2023/01/26 03:36:21;;;;;;;60.13;34.87;;;3.40;99.90;;;;;;5096306;27;20214;-67
2023/01/26 03:41:06;;;;;;;61.70;33.27;;;3.50;99.90;;;;;;5089412;27;20239;-67
2023/01/26 03:58:14;;;;;;;56.50;32.23;;;3.50;99.90;;;;;;5099050;27;20898;-68
2023/01/26 04:01:05;;;;;;;59.83;33.23;;;3.50;99.90;;;;;;5097507;27;20322;-67
2023/01/26 04:10:14;;;;;;;57.53;31.90;;;3.50;99.90;;;;;;5098281;28;20564;-68
2023/01/26 04:22:42;;;;;;;58.60;32.70;;;3.70;99.90;;;;;;5093490;27;20235;-68
2023/01/26 04:25:31;;;;;;;60.23;32.77;;;3.70;99.90;;;;;;5099750;27;20264;-66
2023/01/26 04:28:19;;;;;;;61.97;32.67;;;3.50;99.90;;;;;;5116530;27;20794;-67
2023/01/26 04:31:09;;;;;;;58.50;31.73;;;3.50;99.90;;;;;;5087707;28;20240;-66
2023/01/26 04:33:59;;;;;;;56.77;31.77;;;3.60;99.90;;;;;;5101831;27;20246;-66
2023/01/26 04:36:50;;;;;;;54.50;31.87;;;3.50;99.90;;;;;;5107452;27;20667;-66
2023/01/26 04:39:40;;;;;;;62.57;32.13;;;3.60;99.90;;;;;;5086397;27;20237;-66
2023/01/26 04:42:32;;;;;;;56.67;31.20;;;3.50;99.90;;;;;;5106160;27;20235;-67
2023/01/26 04:45:22;;;;;;;57.90;33.57;;;3.50;99.90;;;;;;5099856;27;20227;-67
2023/01/26 04:48:11;;;;;;;56.97;31.43;;;3.50;99.90;;;;;;5114950;27;20262;-68
2023/01/26 04:51:01;;;;;;;56.57;30.83;;;3.50;99.90;;;;;;5125322;27;20755;-67
2023/01/26 04:53:52;;;;;;;50.30;29.70;;;3.70;99.90;;;;;;5098467;27;20222;-68
2023/01/26 04:56:42;;;;;;;58.50;30.47;;;3.60;99.90;;;;;;5102386;27;20264;-67
2023/01/26 04:59:31;;;;;;;52.10;28.83;;;3.60;99.90;;;;;;5091134;28;20718;-68
2023/01/26 05:02:21;;;;;;;50.17;27.90;;;3.60;99.90;;;;;;5103412;27;20595;-68
2023/01/26 05:05:10;;;;;;;50.90;27.77;;;3.70;99.90;;;;;;5098612;27;20603;-67
2023/01/26 05:08:00;;;;;;;48.57;27.23;;;3.60;99.90;;;;;;5091765;28;20708;-69
2023/01/26 05:10:52;;;;;;;47.07;26.90;;;3.70;99.90;;;;;;5098491;27;20226;-68
2023/01/26 05:13:46;;;;;;;50.27;26.83;;;3.60;99.90;;;;;;5102178;27;20218;-68
2023/01/26 05:16:37;;;;;;;51.80;28.37;;;3.60;99.90;;;;;;5099948;27;20339;-68
2023/01/26 05:19:46;;;;;;;51.30;29.20;;;3.70;99.90;;;;;;5103890;27;20318;-68
2023/01/26 05:22:34;;;;;;;49.57;27.33;;;3.80;99.90;;;;;;5093475;27;20678;-68
2023/01/26 05:25:42;;;;;;;50.70;27.77;;;3.80;99.90;;;;;;5104420;27;20983;-67
2023/01/26 05:28:35;;;;;;;56.63;29.13;;;3.80;99.90;;;;;;5099458;27;20290;-67
2023/01/26 05:31:24;;;;;;;50.70;28.30;;;3.80;99.90;;;;;;5090109;27;20226;-67
2023/01/26 05:34:14;;;;;;;56.73;30.10;;;3.80;99.90;;;;;;5090031;27;20665;-68
2023/01/26 05:37:03;;;;;;;55.43;29.33;;;3.60;99.90;;;;;;5091609;27;20309;-68
2023/01/26 05:39:53;;;;;;;57.53;29.77;;;3.60;99.90;;;;;;5087877;27;20234;-67
2023/01/26 05:42:46;;;;;;;62.33;32.80;;;3.70;99.90;;;;;;5089824;27;20230;-68
2023/01/26 05:45:43;;;;;;;58.50;31.87;;;3.80;99.90;;;;;;5098113;27;20218;-67
2023/01/26 05:48:34;;;;;;;62.63;33.77;;;3.70;99.90;;;;;;5094941;27;20215;-68
2023/01/26 05:51:24;;;;;;;65.37;33.87;;;3.60;99.90;;;;;;5094111;28;20599;-67
2023/01/26 05:54:16;;;;;;;65.40;35.60;;;3.80;99.90;;;;;;5092455;27;20217;-67
2023/01/26 05:57:05;;;;;;;77.73;38.27;;;3.90;99.90;;;;;;5098260;27;20223;-70
2023/01/26 05:59:57;;;;;;;73.17;39.73;;;3.80;99.90;;;;;;5099619;27;20231;-67
2023/01/26 06:02:47;;;;;;;75.57;37.83;;;3.70;99.90;;;;;;5105026;27;20822;-69
2023/01/26 06:05:38;;;;;;;70.33;37.43;;;3.70;99.90;;;;;;5098431;27;20222;-67
2023/01/26 06:08:42;;;;;;;73.10;36.53;;;3.90;99.90;;;;;;5089517;27;20258;-68
2023/01/26 06:11:51;;;;;;;70.77;37.67;;;3.90;99.90;;;;;;5101352;27;20307;-68
2023/01/26 06:14:48;;;;;;;72.67;37.03;;;3.80;99.90;;;;;;5097024;27;20721;-67
2023/01/26 06:17:37;;;;;;;63.80;34.00;;;3.80;99.90;;;;;;5098686;27;20233;-67
2023/01/26 06:20:32;;;;;;;71.30;36.70;;;3.70;99.90;;;;;;5090388;27;20813;-67
2023/01/26 06:23:22;;;;;;;70.17;35.93;;;3.70;99.90;;;;;;5097053;28;20236;-68
2023/01/26 06:26:12;;;;;;;68.13;34.47;;;3.70;99.90;;;;;;5117454;27;20237;-67
2023/01/26 06:29:02;;;;;;;72.33;35.60;;;3.80;99.90;;;;;;5094698;28;20360;-66
2023/01/26 06:31:53;;;;;;;70.43;34.70;;;3.80;99.90;;;;;;5096452;27;20270;-68
2023/01/26 06:34:46;;;;;;;67.40;35.77;;;3.60;99.90;;;;;;5099821;27;20246;-72
2023/01/26 06:37:37;;;;;;;61.73;34.17;;;3.60;99.90;;;;;;5104369;27;20215;-72
2023/01/26 06:40:25;;;;;;;65.97;33.77;;;3.50;99.90;;;;;;5092623;28;20215;-73
2023/01/26 06:43:14;;;;;;;54.47;31.10;;;3.50;99.90;;;;;;5090428;27;20233;-73
2023/01/26 06:46:04;;;;;;;65.60;32.97;;;3.60;99.90;;;;;;5090738;27;20230;-73
2023/01/26 06:48:54;;;;;;;58.27;33.77;;;3.60;99.90;;;;;;5097313;28;20250;-69
2023/01/26 06:51:56;;;;;;;67.90;32.67;;;3.70;99.90;;;;;;5089554;27;20229;-67
2023/01/26 06:55:00;;;;;;;55.27;29.23;;;3.70;99.90;;;;;;5091517;27;20223;-68
2023/01/26 06:58:24;;;;;;;56.83;30.83;;;3.60;99.90;;;;;;5071914;28;20249;-68
2023/01/26 07:01:41;;;;;;;57.63;30.53;;;3.60;99.90;;;;;;5095231;27;20248;-67
2023/01/26 07:04:31;;;;;;;57.13;30.50;;;3.50;99.90;;;;;;5093018;27;20218;-68
2023/01/26 07:07:19;;;;;;;50.40;28.80;;;3.40;99.90;;;;;;5092128;27;20232;-70
2023/01/26 07:10:10;;;;;;;51.53;29.13;;;3.40;99.90;;;;;;5090636;27;20216;-67
2023/01/26 07:13:00;;;;;;;57.77;29.40;;;3.40;99.90;;;;;;5094518;27;20257;-68
2023/01/26 07:15:48;;;;;;;56.00;28.63;;;3.50;99.90;;;;;;5090875;27;20797;-68
2023/01/26 07:18:37;;;;;;;54.03;28.63;;;3.50;99.90;;;;;;5092070;27;20215;-69
2023/01/26 07:21:26;;;;;;;58.43;28.43;;;3.50;99.90;;;;;;5090995;27;20260;-69
2023/01/26 07:24:15;;;;;;;53.60;26.97;;;3.50;99.90;;;;;;5087439;28;20404;-68
2023/01/26 07:27:06;;;;;;;53.80;29.10;;;3.50;99.90;;;;;;5091778;27;20272;-68
2023/01/26 07:29:55;;;;;;;51.60;27.43;;;3.50;99.90;;;;;;5090140;27;20238;-67
2023/01/26 07:32:43;;;;;;;48.43;26.87;;;3.40;99.90;;;;;;5089089;27;20261;-68
2023/01/26 07:35:32;;;;;;;47.50;26.60;;;3.40;99.90;;;;;;5096397;27;20607;-67
2023/01/26 07:38:21;;;;;;;48.43;26.27;;;3.40;99.90;;;;;;5092285;28;20831;-68
2023/01/26 07:41:12;;;;;;;46.83;25.37;;;3.40;99.90;;;;;;5089993;27;20316;-67
2023/01/26 07:44:03;;;;;;;46.80;24.77;;;3.50;99.90;;;;;;5093725;27;20245;-68
2023/01/26 07:46:53;;;;;;;48.67;25.00;;;3.40;99.90;;;;;;5092291;27;20229;-68
2023/01/26 07:49:42;;;;;;;46.17;24.63;;;3.40;99.90;;;;;;5089023;27;20225;-68
2023/01/26 07:52:31;;;;;;;46.37;24.77;;;3.40;99.90;;;;;;5087413;28;20314;-68
2023/01/26 07:55:20;;;;;;;47.63;23.43;;;3.60;99.90;;;;;;5092726;27;20222;-67
2023/01/26 07:58:08;;;;;;;41.57;24.07;;;3.70;99.90;;;;;;5090186;27;20219;-68
2023/01/26 08:01:05;;;;;;;43.87;23.53;;;3.60;99.90;;;;;;5090488;28;21025;-68
2023/01/26 08:03:53;;;;;;;38.13;22.10;;;3.50;99.90;;;;;;5094957;27;20321;-66
2023/01/26 08:06:46;;;;;;;37.80;20.90;;;3.50;99.90;;;;;;5095157;27;20227;-67
2023/01/26 08:09:35;;;;;;;41.30;21.47;;;3.30;99.90;;;;;;5085413;27;20238;-67
2023/01/26 08:12:24;;;;;;;43.07;21.97;;;3.20;99.90;;;;;;5088361;27;20267;-67
2023/01/26 08:15:13;;;;;;;38.07;20.50;;;3.30;99.90;;;;;;5089010;27;20512;-68
2023/01/26 08:18:07;;;;;;;36.03;19.60;;;3.20;99.90;;;;;;5088262;27;20222;-68
2023/01/26 08:20:56;;;;;;;32.57;18.73;;;3.20;99.90;;;;;;5088467;27;20234;-65
2023/01/26 08:23:48;;;;;;;32.60;17.73;;;3.30;99.90;;;;;;5087852;27;20238;-67
2023/01/26 08:26:37;;;;;;;34.57;18.50;;;3.60;99.90;;;;;;5091436;27;20274;-67
2023/01/26 08:29:26;;;;;;;34.83;17.40;;;3.60;99.90;;;;;;5087365;27;20237;-69
2023/01/26 08:32:14;;;;;;;34.27;18.93;;;3.50;99.90;;;;;;5081693;27;20222;-67
2023/01/26 08:35:05;;;;;;;29.60;16.93;;;3.50;99.90;;;;;;5084201;27;20235;-66
2023/01/26 08:37:54;;;;;;;28.17;17.00;;;3.50;99.90;;;;;;5091774;28;20574;-66
2023/01/26 08:40:42;;;;;;;30.50;17.53;;;3.50;99.90;;;;;;5087248;27;20603;-66
2023/01/26 08:43:31;;;;;;;29.77;17.53;;;3.60;99.90;;;;;;5088860;28;20218;-66
2023/01/26 08:46:20;;;;;;;28.10;16.63;;;3.70;99.90;;;;;;5084973;27;20358;-66
2023/01/26 08:49:09;;;;;;;26.73;15.93;;;3.70;99.90;;;;;;5085146;27;20213;-66
2023/01/26 08:52:00;;;;;;;25.83;16.00;;;3.60;99.90;;;;;;5080917;28;20231;-67
2023/01/26 08:54:48;;;;;;;26.53;17.50;;;3.60;99.90;;;;;;5091415;27;20227;-67
2023/01/26 08:57:37;;;;;;;26.80;16.03;;;3.60;99.90;;;;;;5084836;28;20222;-68
2023/01/26 09:00:27;;;;;;;25.97;16.73;;;3.60;99.90;;;;;;5087029;27;21183;-69
2023/01/26 09:03:18;;;;;;;39.40;17.00;;;3.70;99.90;;;;;;5086944;28;20219;-67
2023/01/26 09:06:09;;;;;;;26.97;15.97;;;3.90;99.90;;;;;;5086725;27;20223;-66
2023/01/26 09:08:59;;;;;;;26.97;15.97;;;3.80;99.90;;;;;;5082782;27;20237;-63
2023/01/26 09:11:48;;;;;;;25.13;16.00;;;3.80;99.90;;;;;;5097658;27;20219;-64
2023/01/26 09:14:37;;;;;;;25.30;15.77;;;4.00;99.90;;;;;;5096325;27;20306;-64
2023/01/26 09:17:25;;;;;;;27.97;15.87;;;3.80;99.90;;;;;;5087081;28;20278;-64
2023/01/26 09:20:14;;;;;;;24.37;15.63;;;4.00;99.90;;;;;;5084950;28;20955;-65
2023/01/26 09:23:03;;;;;;;24.90;15.57;;;4.00;99.90;;;;;;5090462;27;20223;-65
2023/01/26 09:25:54;;;;;;;27.90;16.23;;;3.90;99.90;;;;;;5086603;28;20227;-64
2023/01/26 09:28:43;;;;;;;22.70;15.63;;;3.90;99.90;;;;;;5099532;27;20227;-63
2023/01/26 09:31:31;;;;;;;28.00;16.23;;;3.80;99.90;;;;;;5086870;27;20246;-63
2023/01/26 09:34:21;;;;;;;23.00;15.20;;;3.80;99.90;;;;;;5088499;27;20215;-64
2023/01/26 09:37:09;;;;;;;26.57;14.97;;;3.80;99.90;;;;;;5074636;27;20574;-64
2023/01/26 09:39:58;;;;;;;24.67;15.53;;;3.80;99.90;;;;;;5093207;28;20247;-63
2023/01/26 09:43:01;;;;;;;23.67;15.63;;;3.70;99.90;;;;;;5082156;27;20268;-64
2023/01/26 09:46:00;;;;;;;27.77;15.10;;;3.80;99.90;;;;;;5087295;27;20246;-65
2023/01/26 09:48:59;;;;;;;26.40;15.30;;;3.70;99.90;;;;;;5086906;27;20219;-65
2023/01/26 09:51:55;;;;;;;22.90;15.60;;;3.80;99.90;;;;;;5118617;27;20218;-64
2023/01/26 09:54:50;;;;;;;25.97;15.60;;;3.80;99.90;;;;;;5093065;27;20219;-64
2023/01/26 09:57:47;;;;;;;31.47;16.60;;;3.80;99.90;;;;;;5087529;27;20700;-64
2023/01/26 10:00:43;;;;;;;28.17;16.43;;;3.90;99.90;;;;;;5114461;27;20246;-64
2023/01/26 10:03:41;;;;;;;25.13;15.17;;;4.00;99.90;;;;;;5085577;27;20233;-68
2023/01/26 10:06:32;;;;;;;24.97;15.77;;;3.90;99.90;;;;;;5088745;27;20375;-69
2023/01/26 10:09:32;;;;;;;27.40;16.17;;;3.90;99.90;;;;;;5084952;27;20537;-68
2023/01/26 10:12:24;;;;;;;21.97;14.90;;;3.70;99.90;;;;;;5090038;27;20218;-63
2023/01/26 10:15:26;;;;;;;22.40;15.27;;;3.70;99.90;;;;;;5090123;27;20219;-63
2023/01/26 10:18:21;;;;;;;25.50;15.30;;;3.90;99.90;;;;;;5088721;27;20777;-64
2023/01/26 10:21:11;;;;;;;24.40;14.40;;;3.90;99.90;;;;;;5093607;27;20223;-62
2023/01/26 10:24:02;;;;;;;25.97;14.67;;;3.80;99.90;;;;;;5094668;27;20239;-63
2023/01/26 10:26:56;;;;;;;22.77;14.77;;;3.70;99.90;;;;;;5092042;27;20215;-63
2023/01/26 10:29:45;;;;;;;24.63;15.17;;;3.70;99.90;;;;;;5089646;27;20220;-63
2023/01/26 10:32:36;;;;;;;24.47;15.03;;;3.80;99.90;;;;;;5100529;27;20228;-67
2023/01/26 10:35:26;;;;;;;25.40;15.10;;;3.90;99.90;;;;;;5089677;28;20215;-64
2023/01/26 10:38:41;;;;;;;26.03;15.30;;;4.00;99.90;;;;;;5086264;27;20589;-63
2023/01/26 10:41:31;;;;;;;28.10;14.97;;;4.00;99.90;;;;;;5092864;27;20218;-64
2023/01/26 10:44:26;;;;;;;23.23;14.23;;;4.10;99.90;;;;;;5090214;28;20758;-64
2023/01/26 10:47:16;;;;;;;21.53;14.43;;;4.00;99.90;;;;;;5090953;27;20238;-63
2023/01/26 10:50:21;;;;;;;25.30;14.37;;;4.00;99.90;;;;;;5091922;27;20311;-64
2023/01/26 10:53:16;;;;;;;21.90;14.70;;;4.00;99.90;;;;;;5086098;27;20246;-64
2023/01/26 10:56:07;;;;;;;21.67;13.77;;;4.00;99.90;;;;;;5090532;27;20227;-63
2023/01/26 10:58:59;;;;;;;20.07;13.90;;;4.00;99.90;;;;;;5092375;27;20243;-63
2023/01/26 11:01:53;;;;;;;22.73;14.43;;;3.90;99.90;;;;;;5090478;27;20224;-63
2023/01/26 11:05:01;;;;;;;21.57;14.50;;;4.00;99.90;;;;;;5094266;27;20288;-64
2023/01/26 11:07:54;;;;;;;21.00;13.83;;;3.90;99.90;;;;;;5118573;27;20215;-65
2023/01/26 11:10:56;;;;;;;21.23;13.97;;;4.00;99.90;;;;;;5087916;28;20226;-65
2023/01/26 11:13:44;;;;;;;19.80;14.20;;;4.00;99.90;;;;;;5094990;27;20693;-65
2023/01/26 11:16:33;;;;;;;20.03;14.50;;;4.00;99.90;;;;;;5094031;27;20226;-63
2023/01/26 11:19:42;;;;;;;19.57;13.23;;;3.90;99.90;;;;;;5086878;28;20215;-64
2023/01/26 11:22:36;;;;;;;19.60;13.83;;;3.90;99.90;;;;;;5087582;28;20647;-64
2023/01/26 11:25:28;;;;;;;22.03;14.63;;;3.80;99.90;;;;;;5090853;27;21054;-64
2023/01/26 11:28:36;;;;;;;22.27;14.17;;;4.00;99.90;;;;;;5088968;27;20649;-62
2023/01/26 11:31:37;;;;;;;20.87;14.43;;;3.90;99.90;;;;;;5089502;27;20234;-62
2023/01/26 11:34:37;;;;;;;20.07;13.57;;;3.90;99.90;;;;;;5091021;27;20246;-64
2023/01/26 11:37:41;;;;;;;27.30;14.17;;;3.90;99.90;;;;;;5088317;27;20215;-65
2023/01/26 11:40:38;;;;;;;22.07;14.37;;;4.00;99.90;;;;;;5120406;27;20744;-63
2023/01/26 11:43:48;;;;;;;21.43;15.17;;;3.90;99.90;;;;;;5114686;27;20222;-63
2023/01/26 11:46:52;;;;;;;22.07;15.53;;;3.90;99.90;;;;;;5116376;27;20215;-63
2023/01/26 11:50:04;;;;;;;22.43;14.60;;;4.00;99.90;;;;;;5083765;27;20746;-62
2023/01/26 11:53:07;;;;;;;23.50;14.97;;;3.80;99.90;;;;;;5086885;27;20628;-64
2023/01/26 11:56:10;;;;;;;21.53;14.67;;;3.80;99.90;;;;;;5085047;27;20892;-64
2023/01/26 11:59:04;;;;;;;23.10;14.53;;;3.90;99.90;;;;;;5084664;27;20230;-63
2023/01/26 12:01:59;;;;;;;21.77;15.07;;;4.00;99.90;;;;;;5094742;27;20232;-66
2023/01/26 12:04:54;;;;;;;22.00;15.17;;;3.90;99.90;;;;;;5106993;28;20899;-65
2023/01/26 12:07:53;;;;;;;21.60;15.03;;;3.90;99.90;;;;;;5090023;28;20215;-66
2023/01/26 12:10:48;;;;;;;21.73;15.23;;;3.90;99.90;;;;;;5084893;27;20215;-69
2023/01/26 12:13:41;;;;;;;25.13;15.40;;;3.80;99.90;;;;;;5084646;27;20224;-69
2023/01/26 12:16:41;;;;;;;23.73;15.67;;;3.90;99.90;;;;;;5090421;27;20222;-71
2023/01/26 12:19:40;;;;;;;28.87;16.17;;;4.00;99.90;;;;;;5094035;27;20222;-67
2023/01/26 12:22:32;;;;;;;26.47;16.33;;;3.90;99.90;;;;;;5095507;27;20242;-68
2023/01/26 12:25:30;;;;;;;26.63;16.60;;;4.00;99.90;;;;;;5087351;27;20218;-66
2023/01/26 12:28:22;;;;;;;23.10;15.70;;;4.00;99.90;;;;;;5085685;27;20298;-67
2023/01/26 12:31:18;;;;;;;25.07;15.03;;;4.00;99.90;;;;;;5091217;27;20229;-68
2023/01/26 12:34:12;;;;;;;27.73;16.67;;;4.00;99.90;;;;;;5087252;27;20395;-67
2023/01/26 12:37:20;;;;;;;29.00;17.23;;;3.90;99.90;;;;;;5092380;27;20857;-67
2023/01/26 12:40:25;;;;;;;28.07;17.07;;;3.80;99.90;;;;;;5091809;27;20626;-68
2023/01/26 12:43:26;;;;;;;31.27;17.60;;;4.00;99.90;;;;;;5089805;27;20253;-66
2023/01/26 12:46:16;;;;;;;25.30;17.03;;;4.00;99.90;;;;;;5089516;27;20594;-67
2023/01/26 12:49:10;;;;;;;34.53;17.77;;;4.00;99.90;;;;;;5096864;27;20235;-68
2023/01/26 12:52:07;;;;;;;29.57;18.27;;;4.10;99.90;;;;;;5094284;27;20242;-67
2023/01/26 12:55:02;;;;;;;33.70;17.80;;;4.00;99.90;;;;;;5086618;27;20224;-68
2023/01/26 12:57:54;;;;;;;35.77;18.27;;;3.90;99.90;;;;;;5092283;27;20336;-69
2023/01/26 13:00:53;;;;;;;28.03;17.87;;;3.80;99.90;;;;;;5097313;27;20323;-68
2023/01/26 13:03:45;;;;;;;29.03;17.80;;;3.90;99.90;;;;;;5092839;28;20226;-68
2023/01/26 13:06:33;;;;;;;31.83;18.03;;;3.90;99.90;;;;;;5105154;27;20229;-68
2023/01/26 13:09:25;;;;;;;30.40;18.30;;;4.00;99.90;;;;;;5100919;27;20311;-67
2023/01/26 13:12:44;;;;;;;28.63;18.00;;;3.90;99.90;;;;;;5090657;28;20249;-67
2023/01/26 13:15:33;;;;;;;36.00;19.47;;;3.80;99.90;;;;;;5098823;27;20339;-67
2023/01/26 13:18:49;;;;;;;40.10;19.67;;;3.80;99.90;;;;;;5089563;28;20357;-69
2023/01/26 13:21:47;;;;;;;31.97;19.10;;;3.90;99.90;;;;;;5096538;27;20226;-68
2023/01/26 13:24:48;;;;;;;39.83;18.90;;;3.80;99.90;;;;;;5088171;27;20233;-67
2023/01/26 13:27:46;;;;;;;31.93;18.53;;;3.80;99.90;;;;;;5088614;27;20229;-69
2023/01/26 13:30:45;;;;;;;37.90;19.90;;;3.80;99.90;;;;;;5102106;27;20786;-67
2023/01/26 13:33:34;;;;;;;39.70;19.77;;;3.80;99.90;;;;;;5085694;27;20806;-68
2023/01/26 13:36:23;;;;;;;37.40;21.10;;;3.90;99.90;;;;;;5087833;27;20669;-68
2023/01/26 13:39:19;;;;;;;42.70;20.63;;;3.80;99.90;;;;;;5093235;27;20223;-68
2023/01/26 13:42:20;;;;;;;46.90;22.23;;;3.80;99.90;;;;;;5088633;27;20219;-68
2023/01/26 13:45:18;;;;;;;38.20;19.83;;;3.90;99.90;;;;;;5089745;28;20226;-69
2023/01/26 13:48:16;;;;;;;37.20;20.30;;;4.00;99.90;;;;;;5107313;27;20947;-69
2023/01/26 13:51:06;;;;;;;41.10;19.80;;;3.90;99.90;;;;;;5102507;27;20253;-67
2023/01/26 13:54:02;;;;;;;39.10;20.60;;;3.80;99.90;;;;;;5098868;27;20899;-68
2023/01/26 13:57:02;;;;;;;37.33;19.77;;;3.80;99.90;;;;;;5091293;27;20235;-69
2023/01/26 13:59:54;;;;;;;42.30;20.77;;;3.70;99.90;;;;;;5090962;27;20215;-69
2023/01/26 14:02:49;;;;;;;39.17;21.60;;;3.80;99.90;;;;;;5092170;27;20606;-68
2023/01/26 14:05:38;;;;;;;36.73;20.20;;;3.70;99.90;;;;;;5099053;27;20237;-69
2023/01/26 14:08:27;;;;;;;38.77;21.37;;;3.80;99.90;;;;;;5099328;28;20215;-68
2023/01/26 14:11:22;;;;;;;35.87;20.50;;;3.70;99.90;;;;;;5086843;28;20219;-69
2023/01/26 14:14:23;;;;;;;42.53;21.57;;;3.70;99.90;;;;;;5095299;27;20215;-68
2023/01/26 14:17:28;;;;;;;34.80;19.87;;;3.80;99.90;;;;;;5089871;27;20231;-68
2023/01/26 14:20:25;;;;;;;39.33;20.97;;;3.90;99.90;;;;;;5092800;28;20211;-68
2023/01/26 14:23:17;;;;;;;40.07;20.90;;;3.80;99.90;;;;;;5095782;27;20226;-67
2023/01/26 14:26:12;;;;;;;38.87;20.77;;;3.80;99.90;;;;;;5096145;28;20238;-69
2023/01/26 14:29:02;;;;;;;36.17;21.23;;;3.80;99.90;;;;;;5093576;28;20240;-68
2023/01/26 14:31:52;;;;;;;40.10;21.20;;;3.70;99.90;;;;;;5123129;27;20609;-68
2023/01/26 14:34:52;;;;;;;38.87;20.33;;;3.60;99.90;;;;;;5096571;27;20230;-67
2023/01/26 14:37:40;;;;;;;39.57;20.40;;;3.80;99.90;;;;;;5121521;27;20215;-67
2023/01/26 14:40:32;;;;;;;36.87;19.80;;;3.70;99.90;;;;;;5098070;28;20234;-67
2023/01/26 14:43:22;;;;;;;36.93;20.23;;;3.80;99.90;;;;;;5098025;28;20223;-68
2023/01/26 14:46:16;;;;;;;35.53;20.00;;;3.70;99.90;;;;;;5095390;27;20241;-69
2023/01/26 14:49:12;;;;;;;36.23;20.53;;;3.70;99.90;;;;;;5086128;28;20798;-68
2023/01/26 14:52:02;;;;;;;35.23;19.43;;;3.80;99.90;;;;;;5091400;27;20677;-69
2023/01/26 14:54:53;;;;;;;37.60;19.20;;;3.60;99.90;;;;;;5084707;28;20234;-69
2023/01/26 14:57:42;;;;;;;34.50;18.27;;;3.50;99.90;;;;;;5093575;27;20222;-69
2023/01/26 15:00:34;;;;;;;38.07;18.27;;;3.60;99.90;;;;;;5093537;27;20218;-67
2023/01/26 15:03:30;;;;;;;38.03;18.37;;;3.70;99.90;;;;;;5090363;27;20212;-70
2023/01/26 15:06:22;;;;;;;45.00;21.30;;;3.70;99.90;;;;;;5089133;28;20302;-69
2023/01/26 15:09:22;;;;;;;37.07;18.90;;;3.60;99.90;;;;;;5091710;27;20215;-69
2023/01/26 15:12:17;;;;;;;30.97;17.80;;;3.80;99.90;;;;;;5118625;27;20375;-68
2023/01/26 15:15:13;;;;;;;35.13;18.00;;;3.70;99.90;;;;;;5087629;27;20223;-68
2023/01/26 15:18:05;;;;;;;32.43;18.57;;;3.70;99.90;;;;;;5093912;27;20231;-68
2023/01/26 15:21:00;;;;;;;34.70;18.30;;;3.80;99.90;;;;;;5098435;27;21742;-67
2023/01/26 15:23:50;;;;;;;30.53;17.60;;;4.10;99.90;;;;;;5091252;27;20241;-68
2023/01/26 15:26:43;;;;;;;31.57;18.33;;;4.00;99.90;;;;;;5094249;27;20216;-69
2023/01/26 15:29:33;;;;;;;28.33;17.23;;;3.90;99.90;;;;;;5089214;27;20219;-68
2023/01/26 15:32:31;;;;;;;29.93;18.50;;;3.90;99.90;;;;;;5096947;27;20258;-68
2023/01/26 15:35:23;;;;;;;30.90;18.37;;;3.90;99.90;;;;;;5097421;27;20707;-66